sensor_id;sensor_type;location;lat;lon;timestamp;pressure;altitude;pressure_sealevel;temperature;humidity
71559;BME280;59382;43.852;25.952;2023-03-04T00:00:39;101398.53;;;8.86;69.15
71559;BME280;59382;43.852;25.952;2023-03-04T00:03:08;101404.03;;;8.92;69.14
71559;BME280;59382;43.852;25.952;2023-03-04T00:05:36;101383.78;;;8.82;69.15
71559;BME280;59382;43.852;25.952;2023-03-04T00:08:03;101402.69;;;8.88;69.14
71559;BME280;59382;43.852;25.952;2023-03-04T00:10:29;101400.00;;;8.88;69.26
71559;BME280;59382;43.852;25.952;2023-03-04T00:12:55;101395.03;;;8.85;69.26
71559;BME280;59382;43.852;25.952;2023-03-04T00:15:20;101403.66;;;8.95;69.01
71559;BME280;59382;43.852;25.952;2023-03-04T00:17:46;101397.72;;;8.85;68.85
71559;BME280;59382;43.852;25.952;2023-03-04T00:20:11;101408.84;;;8.82;69.05
71559;BME280;59382;43.852;25.952;2023-03-04T00:22:37;101398.16;;;8.74;68.86
71559;BME280;59382;43.852;25.952;2023-03-04T00:25:03;101387.44;;;8.66;69.36
71559;BME280;59382;43.852;25.952;2023-03-04T00:27:29;101399.44;;;8.78;69.52
71559;BME280;59382;43.852;25.952;2023-03-04T00:29:55;101393.69;;;8.81;69.14
71559;BME280;59382;43.852;25.952;2023-03-04T00:32:20;101384.34;;;8.77;69.09
71559;BME280;59382;43.852;25.952;2023-03-04T00:34:46;101399.38;;;8.86;68.99
71559;BME280;59382;43.852;25.952;2023-03-04T00:37:12;101397.31;;;8.88;69.07
71559;BME280;59382;43.852;25.952;2023-03-04T00:39:37;101392.78;;;8.89;68.86
71559;BME280;59382;43.852;25.952;2023-03-04T00:42:03;101378.22;;;8.83;68.75
71559;BME280;59382;43.852;25.952;2023-03-04T00:44:29;101393.50;;;8.83;69.05
71559;BME280;59382;43.852;25.952;2023-03-04T00:46:54;101394.44;;;8.75;69.11
71559;BME280;59382;43.852;25.952;2023-03-04T00:49:20;101401.50;;;8.76;69.23
71559;BME280;59382;43.852;25.952;2023-03-04T00:51:45;101393.81;;;8.73;69.22
71559;BME280;59382;43.852;25.952;2023-03-04T00:54:11;101401.41;;;8.84;69.08
71559;BME280;59382;43.852;25.952;2023-03-04T00:56:38;101398.09;;;8.82;68.88
71559;BME280;59382;43.852;25.952;2023-03-04T00:59:03;101384.03;;;8.72;69.04
71559;BME280;59382;43.852;25.952;2023-03-04T01:01:29;101393.81;;;8.73;69.16
71559;BME280;59382;43.852;25.952;2023-03-04T01:03:54;101379.13;;;8.61;69.23
71559;BME280;59382;43.852;25.952;2023-03-04T01:06:20;101396.91;;;8.62;69.33
71559;BME280;59382;43.852;25.952;2023-03-04T01:08:45;101385.66;;;8.59;69.52
71559;BME280;59382;43.852;25.952;2023-03-04T01:11:11;101402.66;;;8.59;69.40
71559;BME280;59382;43.852;25.952;2023-03-04T01:13:36;101390.47;;;8.49;69.52
71559;BME280;59382;43.852;25.952;2023-03-04T01:16:02;101398.19;;;8.52;69.79
71559;BME280;59382;43.852;25.952;2023-03-04T01:18:29;101373.66;;;8.32;69.97
71559;BME280;59382;43.852;25.952;2023-03-04T01:20:55;101396.72;;;8.49;69.80
71559;BME280;59382;43.852;25.952;2023-03-04T01:23:21;101401.72;;;8.52;69.80
71559;BME280;59382;43.852;25.952;2023-03-04T01:25:47;101390.31;;;8.50;69.74
71559;BME280;59382;43.852;25.952;2023-03-04T01:28:12;101393.72;;;8.44;69.96
71559;BME280;59382;43.852;25.952;2023-03-04T01:30:38;101394.03;;;8.49;69.82
71559;BME280;59382;43.852;25.952;2023-03-04T01:33:03;101388.47;;;8.51;69.84
71559;BME280;59382;43.852;25.952;2023-03-04T01:35:29;101391.97;;;8.51;69.86
71559;BME280;59382;43.852;25.952;2023-03-04T01:37:54;101388.34;;;8.44;69.72
71559;BME280;59382;43.852;25.952;2023-03-04T01:40:20;101383.13;;;8.43;69.98
71559;BME280;59382;43.852;25.952;2023-03-04T01:42:45;101372.75;;;8.40;69.77
71559;BME280;59382;43.852;25.952;2023-03-04T01:45:13;101384.56;;;8.53;69.90
71559;BME280;59382;43.852;25.952;2023-03-04T01:47:40;101368.84;;;8.42;69.98
71559;BME280;59382;43.852;25.952;2023-03-04T01:50:24;101375.19;;;8.49;69.41
71559;BME280;59382;43.852;25.952;2023-03-04T01:52:54;101367.13;;;8.49;69.65
71559;BME280;59382;43.852;25.952;2023-03-04T01:55:20;101377.06;;;8.63;69.79
71559;BME280;59382;43.852;25.952;2023-03-04T01:57:48;101345.13;;;8.60;69.53
71559;BME280;59382;43.852;25.952;2023-03-04T02:02:44;101348.13;;;8.65;69.43
71559;BME280;59382;43.852;25.952;2023-03-04T02:05:10;101346.72;;;8.69;69.20
71559;BME280;59382;43.852;25.952;2023-03-04T02:07:36;101362.31;;;8.74;69.26
71559;BME280;59382;43.852;25.952;2023-03-04T02:10:03;101346.16;;;8.59;69.14
71559;BME280;59382;43.852;25.952;2023-03-04T02:12:29;101362.25;;;8.67;69.33
71559;BME280;59382;43.852;25.952;2023-03-04T02:14:57;101349.34;;;8.63;69.26
71559;BME280;59382;43.852;25.952;2023-03-04T02:17:26;101335.97;;;8.55;69.25
71559;BME280;59382;43.852;25.952;2023-03-04T02:19:58;101361.59;;;8.65;69.46
71559;BME280;59382;43.852;25.952;2023-03-04T02:22:26;101352.84;;;8.63;69.31
71559;BME280;59382;43.852;25.952;2023-03-04T02:24:55;101357.03;;;8.66;69.45
71559;BME280;59382;43.852;25.952;2023-03-04T02:27:24;101353.88;;;8.62;69.38
71559;BME280;59382;43.852;25.952;2023-03-04T02:29:49;101331.13;;;8.50;69.37
71559;BME280;59382;43.852;25.952;2023-03-04T02:32:16;101348.50;;;8.62;69.50
71559;BME280;59382;43.852;25.952;2023-03-04T02:34:46;101354.06;;;8.61;69.42
71559;BME280;59382;43.852;25.952;2023-03-04T02:37:12;101358.97;;;8.57;69.53
71559;BME280;59382;43.852;25.952;2023-03-04T02:39:43;101348.66;;;8.46;69.51
71559;BME280;59382;43.852;25.952;2023-03-04T02:42:09;101335.28;;;8.38;69.73
71559;BME280;59382;43.852;25.952;2023-03-04T02:44:37;101350.69;;;8.44;69.34
71559;BME280;59382;43.852;25.952;2023-03-04T02:47:06;101354.41;;;8.43;69.66
71559;BME280;59382;43.852;25.952;2023-03-04T02:49:36;101298.13;;;8.19;69.45
71559;BME280;59382;43.852;25.952;2023-03-04T02:54:36;101350.06;;;8.57;69.47
71559;BME280;59382;43.852;25.952;2023-03-04T02:57:05;101322.94;;;8.44;69.33
71559;BME280;59382;43.852;25.952;2023-03-04T02:59:34;101335.09;;;8.54;69.46
71559;BME280;59382;43.852;25.952;2023-03-04T03:01:59;101331.88;;;8.59;69.32
71559;BME280;59382;43.852;25.952;2023-03-04T03:04:25;101327.22;;;8.53;69.27
71559;BME280;59382;43.852;25.952;2023-03-04T03:06:51;101322.13;;;8.43;69.30
71559;BME280;59382;43.852;25.952;2023-03-04T03:09:18;101322.75;;;8.45;69.69
71559;BME280;59382;43.852;25.952;2023-03-04T03:11:44;101329.84;;;8.46;69.69
71559;BME280;59382;43.852;25.952;2023-03-04T03:14:09;101332.16;;;8.49;69.57
71559;BME280;59382;43.852;25.952;2023-03-04T03:16:35;101338.47;;;8.56;69.80
71559;BME280;59382;43.852;25.952;2023-03-04T03:19:01;101345.06;;;8.54;69.51
71559;BME280;59382;43.852;25.952;2023-03-04T03:21:26;101319.50;;;8.35;69.58
71559;BME280;59382;43.852;25.952;2023-03-04T03:23:52;101331.66;;;8.31;69.44
71559;BME280;59382;43.852;25.952;2023-03-04T03:26:18;101339.34;;;8.34;69.81
71559;BME280;59382;43.852;25.952;2023-03-04T03:28:43;101345.41;;;8.36;69.65
71559;BME280;59382;43.852;25.952;2023-03-04T03:31:09;101341.38;;;8.32;69.79
71559;BME280;59382;43.852;25.952;2023-03-04T03:33:35;101351.13;;;8.33;69.60
71559;BME280;59382;43.852;25.952;2023-03-04T03:36:03;101338.41;;;8.27;69.80
71559;BME280;59382;43.852;25.952;2023-03-04T03:38:29;101352.84;;;8.26;69.99
71559;BME280;59382;43.852;25.952;2023-03-04T03:40:55;101342.78;;;8.20;69.78
71559;BME280;59382;43.852;25.952;2023-03-04T03:43:22;101348.69;;;8.24;69.99
71559;BME280;59382;43.852;25.952;2023-03-04T03:45:48;101358.59;;;8.23;70.03
71559;BME280;59382;43.852;25.952;2023-03-04T03:48:14;101344.47;;;8.21;69.98
71559;BME280;59382;43.852;25.952;2023-03-04T03:50:39;101345.09;;;8.31;69.89
71559;BME280;59382;43.852;25.952;2023-03-04T03:53:06;101336.72;;;8.26;69.67
71559;BME280;59382;43.852;25.952;2023-03-04T03:55:32;101347.47;;;8.26;69.98
71559;BME280;59382;43.852;25.952;2023-03-04T03:57:57;101336.72;;;8.26;69.98
71559;BME280;59382;43.852;25.952;2023-03-04T04:00:22;101304.03;;;8.15;70.14
71559;BME280;59382;43.852;25.952;2023-03-04T04:02:48;101340.19;;;8.35;69.78
71559;BME280;59382;43.852;25.952;2023-03-04T04:05:14;101328.78;;;8.33;70.06
71559;BME280;59382;43.852;25.952;2023-03-04T04:07:39;101335.56;;;8.43;69.84
71559;BME280;59382;43.852;25.952;2023-03-04T04:10:06;101314.50;;;8.32;69.82
71559;BME280;59382;43.852;25.952;2023-03-04T04:12:32;101343.28;;;8.46;69.63
71559;BME280;59382;43.852;25.952;2023-03-04T04:14:57;101327.03;;;8.40;69.71
71559;BME280;59382;43.852;25.952;2023-03-04T04:17:23;101325.09;;;8.48;69.54
71559;BME280;59382;43.852;25.952;2023-03-04T04:19:48;101338.59;;;8.63;69.37
71559;BME280;59382;43.852;25.952;2023-03-04T04:22:16;101320.94;;;8.60;69.25
71559;BME280;59382;43.852;25.952;2023-03-04T04:24:42;101337.56;;;8.78;69.19
71559;BME280;59382;43.852;25.952;2023-03-04T04:27:11;101341.84;;;8.87;68.70
71559;BME280;59382;43.852;25.952;2023-03-04T04:29:37;101343.59;;;8.80;68.71
71559;BME280;59382;43.852;25.952;2023-03-04T04:32:03;101335.91;;;8.77;68.82
71559;BME280;59382;43.852;25.952;2023-03-04T04:34:28;101346.84;;;8.90;68.93
71559;BME280;59382;43.852;25.952;2023-03-04T04:36:54;101350.28;;;8.99;68.55
71559;BME280;59382;43.852;25.952;2023-03-04T04:39:19;101356.78;;;9.04;68.76
71559;BME280;59382;43.852;25.952;2023-03-04T04:41:45;101358.75;;;9.10;68.47
71559;BME280;59382;43.852;25.952;2023-03-04T04:44:14;101359.19;;;9.14;68.22
71559;BME280;59382;43.852;25.952;2023-03-04T04:46:40;101355.31;;;9.16;68.24
71559;BME280;59382;43.852;25.952;2023-03-04T04:49:06;101356.88;;;9.25;68.23
71559;BME280;59382;43.852;25.952;2023-03-04T04:51:32;101364.22;;;9.31;67.88
71559;BME280;59382;43.852;25.952;2023-03-04T04:53:59;101354.81;;;9.27;67.68
71559;BME280;59382;43.852;25.952;2023-03-04T04:56:25;101361.88;;;9.28;67.65
71559;BME280;59382;43.852;25.952;2023-03-04T04:58:53;101344.16;;;9.19;67.86
71559;BME280;59382;43.852;25.952;2023-03-04T05:01:18;101364.22;;;9.31;67.83
71559;BME280;59382;43.852;25.952;2023-03-04T05:03:44;101332.72;;;9.17;67.78
71559;BME280;59382;43.852;25.952;2023-03-04T05:06:11;101362.44;;;9.38;67.64
71559;BME280;59382;43.852;25.952;2023-03-04T05:08:37;101364.56;;;9.43;67.47
71559;BME280;59382;43.852;25.952;2023-03-04T05:11:04;101349.97;;;9.37;67.44
71559;BME280;59382;43.852;25.952;2023-03-04T05:13:30;101356.28;;;9.44;67.20
71559;BME280;59382;43.852;25.952;2023-03-04T05:15:56;101355.44;;;9.44;67.35
71559;BME280;59382;43.852;25.952;2023-03-04T05:18:23;101354.34;;;9.38;67.33
71559;BME280;59382;43.852;25.952;2023-03-04T05:21:10;101352.03;;;9.35;67.22
71559;BME280;59382;43.852;25.952;2023-03-04T05:23:39;101348.25;;;9.30;67.53
71559;BME280;59382;43.852;25.952;2023-03-04T05:26:06;101373.56;;;9.35;67.38
71559;BME280;59382;43.852;25.952;2023-03-04T05:28:32;101359.94;;;9.22;67.40
71559;BME280;59382;43.852;25.952;2023-03-04T05:31:01;101363.00;;;9.19;67.74
71559;BME280;59382;43.852;25.952;2023-03-04T05:33:29;101381.75;;;9.27;67.98
71559;BME280;59382;43.852;25.952;2023-03-04T05:35:55;101376.72;;;9.24;67.85
71559;BME280;59382;43.852;25.952;2023-03-04T05:38:21;101370.06;;;9.20;67.37
71559;BME280;59382;43.852;25.952;2023-03-04T05:40:48;101376.66;;;9.18;67.58
71559;BME280;59382;43.852;25.952;2023-03-04T05:43:14;101383.22;;;9.15;67.95
71559;BME280;59382;43.852;25.952;2023-03-04T05:45:41;101379.16;;;9.19;67.71
71559;BME280;59382;43.852;25.952;2023-03-04T05:48:07;101384.63;;;9.26;67.75
71559;BME280;59382;43.852;25.952;2023-03-04T05:50:33;101383.81;;;9.25;67.40
71559;BME280;59382;43.852;25.952;2023-03-04T05:52:59;101385.16;;;9.36;67.45
71559;BME280;59382;43.852;25.952;2023-03-04T05:55:26;101393.34;;;9.42;67.46
71559;BME280;59382;43.852;25.952;2023-03-04T05:57:53;101387.56;;;9.45;67.37
71559;BME280;59382;43.852;25.952;2023-03-04T06:00:21;101379.50;;;9.45;66.98
71559;BME280;59382;43.852;25.952;2023-03-04T06:02:46;101370.75;;;9.43;67.00
71559;BME280;59382;43.852;25.952;2023-03-04T06:05:13;101382.09;;;9.53;66.94
71559;BME280;59382;43.852;25.952;2023-03-04T06:07:39;101390.25;;;9.60;66.88
71559;BME280;59382;43.852;25.952;2023-03-04T06:10:08;101397.56;;;9.66;66.99
71559;BME280;59382;43.852;25.952;2023-03-04T06:12:33;101395.63;;;9.74;66.51
71559;BME280;59382;43.852;25.952;2023-03-04T06:14:59;101385.00;;;9.87;66.71
71559;BME280;59382;43.852;25.952;2023-03-04T06:17:24;101406.41;;;10.31;66.06
71559;BME280;59382;43.852;25.952;2023-03-04T06:19:50;101402.88;;;10.52;65.43
71559;BME280;59382;43.852;25.952;2023-03-04T06:22:15;101404.84;;;10.64;65.36
71559;BME280;59382;43.852;25.952;2023-03-04T06:24:43;101390.75;;;10.69;64.94
71559;BME280;59382;43.852;25.952;2023-03-04T06:27:09;101399.03;;;10.61;65.02
71559;BME280;59382;43.852;25.952;2023-03-04T06:29:38;101409.28;;;10.51;65.22
71559;BME280;59382;43.852;25.952;2023-03-04T06:32:06;101418.81;;;10.47;65.78
71559;BME280;59382;43.852;25.952;2023-03-04T06:34:37;101406.88;;;10.35;65.67
71559;BME280;59382;43.852;25.952;2023-03-04T06:37:03;101410.84;;;10.39;65.42
71559;BME280;59382;43.852;25.952;2023-03-04T06:39:28;101406.47;;;10.17;65.53
71559;BME280;59382;43.852;25.952;2023-03-04T06:41:57;101419.44;;;10.07;65.57
71559;BME280;59382;43.852;25.952;2023-03-04T06:44:22;101403.28;;;9.92;66.04
71559;BME280;59382;43.852;25.952;2023-03-04T06:46:48;101414.88;;;9.92;66.20
71559;BME280;59382;43.852;25.952;2023-03-04T06:49:13;101424.47;;;9.95;65.91
71559;BME280;59382;43.852;25.952;2023-03-04T06:51:39;101421.59;;;9.96;66.06
71559;BME280;59382;43.852;25.952;2023-03-04T06:54:04;101416.19;;;9.96;66.16
71559;BME280;59382;43.852;25.952;2023-03-04T06:56:30;101423.25;;;9.97;66.18
71559;BME280;59382;43.852;25.952;2023-03-04T06:58:56;101416.81;;;9.98;66.13
71559;BME280;59382;43.852;25.952;2023-03-04T07:01:26;101416.06;;;10.04;66.41
71559;BME280;59382;43.852;25.952;2023-03-04T07:03:53;101419.72;;;10.12;65.84
71559;BME280;59382;43.852;25.952;2023-03-04T07:06:21;101423.03;;;10.14;66.10
71559;BME280;59382;43.852;25.952;2023-03-04T07:08:48;101423.88;;;10.14;65.98
71559;BME280;59382;43.852;25.952;2023-03-04T07:11:14;101409.31;;;10.09;66.00
71559;BME280;59382;43.852;25.952;2023-03-04T07:13:40;101418.94;;;10.18;65.98
71559;BME280;59382;43.852;25.952;2023-03-04T07:16:07;101402.97;;;10.01;65.83
71559;BME280;59382;43.852;25.952;2023-03-04T07:18:34;101391.38;;;10.01;66.11
71559;BME280;59382;43.852;25.952;2023-03-04T07:21:00;101406.03;;;10.13;66.19
71559;BME280;59382;43.852;25.952;2023-03-04T07:23:26;101405.72;;;10.23;66.11
71559;BME280;59382;43.852;25.952;2023-03-04T07:25:51;101396.59;;;10.24;66.40
71559;BME280;59382;43.852;25.952;2023-03-04T07:28:18;101390.84;;;10.27;66.14
71559;BME280;59382;43.852;25.952;2023-03-04T07:30:43;101404.25;;;10.41;65.97
71559;BME280;59382;43.852;25.952;2023-03-04T07:33:09;101371.78;;;10.35;65.97
71559;BME280;59382;43.852;25.952;2023-03-04T07:35:35;101396.72;;;10.58;65.69
71559;BME280;59382;43.852;25.952;2023-03-04T07:38:01;101359.31;;;10.55;65.48
71559;BME280;59382;43.852;25.952;2023-03-04T07:40:28;101403.81;;;10.93;64.79
71559;BME280;59382;43.852;25.952;2023-03-04T07:42:54;101386.31;;;11.10;64.39
71559;BME280;59382;43.852;25.952;2023-03-04T07:45:20;101399.34;;;11.40;64.05
71559;BME280;59382;43.852;25.952;2023-03-04T07:47:46;101396.81;;;11.66;63.54
71559;BME280;59382;43.852;25.952;2023-03-04T07:50:12;101388.53;;;11.87;63.39
71559;BME280;59382;43.852;25.952;2023-03-04T07:52:40;101370.69;;;11.93;63.25
71559;BME280;59382;43.852;25.952;2023-03-04T07:55:06;101382.78;;;12.04;62.43
71559;BME280;59382;43.852;25.952;2023-03-04T07:57:32;101382.16;;;12.08;62.03
71559;BME280;59382;43.852;25.952;2023-03-04T07:59:58;101370.72;;;12.06;62.26
71559;BME280;59382;43.852;25.952;2023-03-04T08:02:23;101380.75;;;12.32;62.52
71559;BME280;59382;43.852;25.952;2023-03-04T08:04:49;101385.75;;;12.35;62.04
71559;BME280;59382;43.852;25.952;2023-03-04T08:07:14;101383.19;;;12.20;61.96
71559;BME280;59382;43.852;25.952;2023-03-04T08:09:43;101363.38;;;11.87;62.02
71559;BME280;59382;43.852;25.952;2023-03-04T08:12:08;101374.94;;;11.68;63.09
71559;BME280;59382;43.852;25.952;2023-03-04T08:14:34;101374.19;;;11.40;63.01
71559;BME280;59382;43.852;25.952;2023-03-04T08:17:00;101372.03;;;11.22;63.84
71559;BME280;59382;43.852;25.952;2023-03-04T08:19:26;101360.91;;;11.04;63.60
71559;BME280;59382;43.852;25.952;2023-03-04T08:21:51;101367.78;;;11.07;63.83
71559;BME280;59382;43.852;25.952;2023-03-04T08:24:17;101365.63;;;10.96;63.68
71559;BME280;59382;43.852;25.952;2023-03-04T08:26:46;101347.66;;;10.82;64.08
71559;BME280;59382;43.852;25.952;2023-03-04T08:29:15;101343.56;;;10.86;64.32
71559;BME280;59382;43.852;25.952;2023-03-04T08:31:42;101347.38;;;10.98;64.15
71559;BME280;59382;43.852;25.952;2023-03-04T08:34:11;101352.09;;;11.30;63.80
71559;BME280;59382;43.852;25.952;2023-03-04T08:36:39;101336.78;;;11.43;63.46
71559;BME280;59382;43.852;25.952;2023-03-04T08:39:07;101352.72;;;11.66;63.23
71559;BME280;59382;43.852;25.952;2023-03-04T08:41:33;101345.66;;;11.65;62.79
71559;BME280;59382;43.852;25.952;2023-03-04T08:43:59;101352.31;;;11.69;62.64
71559;BME280;59382;43.852;25.952;2023-03-04T08:46:24;101351.84;;;11.59;62.78
71559;BME280;59382;43.852;25.952;2023-03-04T08:48:50;101350.09;;;11.45;63.25
71559;BME280;59382;43.852;25.952;2023-03-04T08:51:16;101344.00;;;11.30;63.26
71559;BME280;59382;43.852;25.952;2023-03-04T08:53:42;101345.44;;;11.26;63.37
71559;BME280;59382;43.852;25.952;2023-03-04T08:56:12;101348.84;;;11.41;63.32
71559;BME280;59382;43.852;25.952;2023-03-04T08:58:38;101321.88;;;11.54;63.05
71559;BME280;59382;43.852;25.952;2023-03-04T09:01:07;101319.47;;;11.72;62.81
71559;BME280;59382;43.852;25.952;2023-03-04T09:03:35;101324.47;;;11.88;62.10
71559;BME280;59382;43.852;25.952;2023-03-04T09:06:02;101313.69;;;11.95;62.33
71559;BME280;59382;43.852;25.952;2023-03-04T09:08:28;101325.38;;;12.21;62.03
71559;BME280;59382;43.852;25.952;2023-03-04T09:10:56;101325.56;;;12.26;61.89
71559;BME280;59382;43.852;25.952;2023-03-04T09:13:22;101308.31;;;12.27;61.99
71559;BME280;59382;43.852;25.952;2023-03-04T09:15:52;101319.97;;;12.41;62.01
71559;BME280;59382;43.852;25.952;2023-03-04T09:18:19;101315.34;;;12.61;61.27
71559;BME280;59382;43.852;25.952;2023-03-04T09:20:45;101311.97;;;12.85;60.71
71559;BME280;59382;43.852;25.952;2023-03-04T09:23:12;101289.66;;;13.02;60.25
71559;BME280;59382;43.852;25.952;2023-03-04T09:25:42;101310.19;;;13.36;59.81
71559;BME280;59382;43.852;25.952;2023-03-04T09:28:11;101300.22;;;13.23;59.07
71559;BME280;59382;43.852;25.952;2023-03-04T09:30:37;101292.38;;;13.09;59.63
71559;BME280;59382;43.852;25.952;2023-03-04T09:33:03;101307.56;;;13.16;60.01
71559;BME280;59382;43.852;25.952;2023-03-04T09:35:28;101298.97;;;13.26;59.82
71559;BME280;59382;43.852;25.952;2023-03-04T09:37:54;101305.44;;;13.18;59.38
71559;BME280;59382;43.852;25.952;2023-03-04T09:40:29;101288.03;;;12.88;59.28
71559;BME280;59382;43.852;25.952;2023-03-04T09:43:00;101279.06;;;12.81;59.84
71559;BME280;59382;43.852;25.952;2023-03-04T09:45:40;101252.88;;;12.62;60.32
71559;BME280;59382;43.852;25.952;2023-03-04T09:48:11;101254.97;;;12.47;60.01
71559;BME280;59382;43.852;25.952;2023-03-04T09:50:50;101290.78;;;12.69;60.57
71559;BME280;59382;43.852;25.952;2023-03-04T09:56:15;101268.63;;;13.04;60.13
71559;BME280;59382;43.852;25.952;2023-03-04T09:58:49;101275.63;;;13.25;59.82
71559;BME280;59382;43.852;25.952;2023-03-04T10:01:35;101274.69;;;13.44;59.35
71559;BME280;59382;43.852;25.952;2023-03-04T10:04:15;101258.84;;;13.47;59.11
71559;BME280;59382;43.852;25.952;2023-03-04T10:06:42;101270.66;;;13.59;58.95
71559;BME280;59382;43.852;25.952;2023-03-04T10:09:22;101257.19;;;13.46;58.70
71559;BME280;59382;43.852;25.952;2023-03-04T10:11:58;101257.66;;;13.30;58.78
71559;BME280;59382;43.852;25.952;2023-03-04T10:17:16;101258.13;;;13.21;59.46
71559;BME280;59382;43.852;25.952;2023-03-04T10:20:37;101256.84;;;13.30;59.61
71559;BME280;59382;43.852;25.952;2023-03-04T10:23:10;101247.44;;;13.32;59.21
71559;BME280;59382;43.852;25.952;2023-03-04T10:25:44;101238.47;;;13.32;59.06
71559;BME280;59382;43.852;25.952;2023-03-04T10:28:17;101240.09;;;13.39;59.19
71559;BME280;59382;43.852;25.952;2023-03-04T10:33:37;101235.94;;;13.43;58.97
71559;BME280;59382;43.852;25.952;2023-03-04T10:36:25;101208.19;;;13.41;58.83
71559;BME280;59382;43.852;25.952;2023-03-04T10:39:04;101222.44;;;13.61;58.44
71559;BME280;59382;43.852;25.952;2023-03-04T10:41:31;101218.25;;;13.65;58.57
71559;BME280;59382;43.852;25.952;2023-03-04T10:44:11;101203.19;;;13.69;58.23
71559;BME280;59382;43.852;25.952;2023-03-04T10:46:45;101210.56;;;13.62;58.33
71559;BME280;59382;43.852;25.952;2023-03-04T10:49:13;101190.00;;;13.48;58.45
71559;BME280;59382;43.852;25.952;2023-03-04T10:51:48;101192.28;;;13.51;58.59
71559;BME280;59382;43.852;25.952;2023-03-04T10:54:39;101185.84;;;13.46;58.40
71559;BME280;59382;43.852;25.952;2023-03-04T10:57:15;101176.72;;;13.40;58.64
71559;BME280;59382;43.852;25.952;2023-03-04T10:59:45;101175.84;;;13.46;58.72
71559;BME280;59382;43.852;25.952;2023-03-04T11:05:04;101175.44;;;13.43;58.50
71559;BME280;59382;43.852;25.952;2023-03-04T11:07:30;101157.59;;;13.29;58.95
71559;BME280;59382;43.852;25.952;2023-03-04T11:10:15;101166.22;;;13.19;58.86
71559;BME280;59382;43.852;25.952;2023-03-04T11:12:59;101147.34;;;13.00;59.18
71559;BME280;59382;43.852;25.952;2023-03-04T11:15:27;101149.03;;;12.94;59.11
71559;BME280;59382;43.852;25.952;2023-03-04T11:17:59;101104.38;;;12.59;59.71
71559;BME280;59382;43.852;25.952;2023-03-04T11:20:31;101145.50;;;12.87;59.98
71559;BME280;59382;43.852;25.952;2023-03-04T11:23:52;101119.06;;;12.83;59.88
71559;BME280;59382;43.852;25.952;2023-03-04T11:26:00;101126.53;;;13.00;59.53
71559;BME280;59382;43.852;25.952;2023-03-04T11:31:27;101126.25;;;13.08;59.55
71559;BME280;59382;43.852;25.952;2023-03-04T11:42:46;101104.84;;;13.31;58.87
71559;BME280;59382;43.852;25.952;2023-03-04T11:45:16;101115.41;;;13.39;58.58
71559;BME280;59382;43.852;25.952;2023-03-04T11:47:52;101109.41;;;13.37;58.60
71559;BME280;59382;43.852;25.952;2023-03-04T11:50:44;101110.06;;;13.33;58.80
71559;BME280;59382;43.852;25.952;2023-03-04T11:53:35;101105.44;;;13.33;59.12
71559;BME280;59382;43.852;25.952;2023-03-04T11:56:25;101088.41;;;13.26;59.10
71559;BME280;59382;43.852;25.952;2023-03-04T12:07:42;101093.38;;;13.29;59.14
71559;BME280;59382;43.852;25.952;2023-03-04T12:13:14;101094.66;;;13.27;59.04
71559;BME280;59382;43.852;25.952;2023-03-04T12:18:33;101090.94;;;13.21;58.96
71559;BME280;59382;43.852;25.952;2023-03-04T12:29:05;101066.16;;;13.42;58.51
71559;BME280;59382;43.852;25.952;2023-03-04T12:34:45;101066.97;;;13.49;57.75
71559;BME280;59382;43.852;25.952;2023-03-04T12:39:47;101051.38;;;13.63;58.51
71559;BME280;59382;43.852;25.952;2023-03-04T12:42:26;101056.13;;;13.67;58.29
71559;BME280;59382;43.852;25.952;2023-03-04T12:45:19;101046.78;;;13.63;57.90
71559;BME280;59382;43.852;25.952;2023-03-04T12:55:44;101033.69;;;13.60;58.52
71559;BME280;59382;43.852;25.952;2023-03-04T12:58:20;101026.44;;;13.54;58.18
71559;BME280;59382;43.852;25.952;2023-03-04T13:16:59;101001.31;;;13.65;57.48
71559;BME280;59382;43.852;25.952;2023-03-04T13:19:51;101002.66;;;13.56;57.41
71559;BME280;59382;43.852;25.952;2023-03-04T13:22:27;100997.69;;;13.53;58.10
71559;BME280;59382;43.852;25.952;2023-03-04T13:24:53;100981.91;;;13.44;58.17
71559;BME280;59382;43.852;25.952;2023-03-04T13:27:45;100979.50;;;13.54;57.59
71559;BME280;59382;43.852;25.952;2023-03-04T13:43:27;100958.38;;;13.62;57.79
71559;BME280;59382;43.852;25.952;2023-03-04T13:51:34;100954.88;;;13.55;57.96
71559;BME280;59382;43.852;25.952;2023-03-04T13:54:29;100935.59;;;13.45;58.27
71559;BME280;59382;43.852;25.952;2023-03-04T13:57:18;100943.91;;;13.50;58.23
71559;BME280;59382;43.852;25.952;2023-03-04T13:59:58;100939.53;;;13.49;58.04
71559;BME280;59382;43.852;25.952;2023-03-04T14:02:24;100941.81;;;13.52;58.52
71559;BME280;59382;43.852;25.952;2023-03-04T14:07:37;100922.22;;;13.50;58.01
71559;BME280;59382;43.852;25.952;2023-03-04T14:12:57;100926.28;;;13.59;58.36
71559;BME280;59382;43.852;25.952;2023-03-04T14:15:26;100929.56;;;13.61;57.95
71559;BME280;59382;43.852;25.952;2023-03-04T14:17:57;100905.50;;;13.53;57.77
71559;BME280;59382;43.852;25.952;2023-03-04T14:20:30;100920.41;;;13.62;57.90
71559;BME280;59382;43.852;25.952;2023-03-04T14:23:02;100918.28;;;13.64;57.63
71559;BME280;59382;43.852;25.952;2023-03-04T14:25:31;100900.66;;;13.55;57.24
71559;BME280;59382;43.852;25.952;2023-03-04T14:30:28;100907.31;;;13.59;57.13
71559;BME280;59382;43.852;25.952;2023-03-04T14:32:58;100901.28;;;13.57;57.18
71559;BME280;59382;43.852;25.952;2023-03-04T14:36:00;100902.47;;;13.61;57.32
71559;BME280;59382;43.852;25.952;2023-03-04T14:41:03;100884.56;;;13.60;57.31
71559;BME280;59382;43.852;25.952;2023-03-04T14:43:40;100879.44;;;13.52;57.39